Time;durP1;ratioP1;P1;durP2;ratioP2;P2;SDS_P1;SDS_P2;PMS_P1;PMS_P2;Temp;Humidity;BMP_temperature;BMP_pressure;BME280_temperature;BME280_humidity;BME280_pressure;Samples;Min_cycle;Max_cycle;Signal;HPM_P1;HPM_P2
2021/06/17 00:00:18;;;;;;;11.30;8.00;;;25.10;61.90;;;;;;5057722;28;20048;-74
2021/06/17 00:02:45;;;;;;;11.20;8.55;;;25.10;61.70;;;;;;5060179;28;20036;-73
2021/06/17 00:05:14;;;;;;;11.20;8.10;;;25.10;62.00;;;;;;5057630;28;20024;-82
2021/06/17 00:07:40;;;;;;;11.40;8.57;;;25.00;62.30;;;;;;5059696;28;20867;-72
2021/06/17 00:10:09;;;;;;;10.90;7.97;;;25.00;62.20;;;;;;5058537;28;20713;-73
2021/06/17 00:12:35;;;;;;;9.80;7.55;;;24.90;62.40;;;;;;5058696;28;20055;-74
2021/06/17 00:15:01;;;;;;;12.18;8.18;;;24.90;62.70;;;;;;5056660;28;20052;-72
2021/06/17 00:17:26;;;;;;;12.05;8.48;;;24.80;62.40;;;;;;5058483;28;20037;-81
2021/06/17 00:19:52;;;;;;;11.57;8.65;;;24.80;62.30;;;;;;5056192;28;20036;-74
2021/06/17 00:22:18;;;;;;;13.45;9.52;;;24.70;62.70;;;;;;5057357;28;20072;-80
2021/06/17 00:24:44;;;;;;;12.80;9.93;;;24.60;63.10;;;;;;5057654;28;20135;-74
2021/06/17 00:27:09;;;;;;;12.40;9.20;;;24.60;63.40;;;;;;5058129;28;20382;-82
2021/06/17 00:29:35;;;;;;;10.85;9.15;;;24.50;63.60;;;;;;5057187;28;20106;-72
2021/06/17 00:32:01;;;;;;;12.57;9.07;;;24.40;63.80;;;;;;5057925;28;20045;-80
2021/06/17 00:34:26;;;;;;;9.98;8.65;;;24.40;63.90;;;;;;5041255;28;20036;-79
2021/06/17 00:36:52;;;;;;;11.43;9.00;;;24.40;64.00;;;;;;5056332;28;20075;-72
2021/06/17 00:39:17;;;;;;;11.15;9.95;;;24.30;64.20;;;;;;5058688;28;20376;-75
2021/06/17 00:41:43;;;;;;;14.00;10.52;;;24.30;64.30;;;;;;5042217;28;20399;-73
2021/06/17 00:44:09;;;;;;;11.50;9.30;;;24.30;64.40;;;;;;5038026;28;20305;-74
2021/06/17 00:46:35;;;;;;;11.52;9.02;;;24.30;64.90;;;;;;5056972;28;20497;-79
2021/06/17 00:49:01;;;;;;;10.52;8.05;;;24.20;65.00;;;;;;5058970;28;20838;-72
2021/06/17 00:51:27;;;;;;;10.45;8.65;;;24.20;64.80;;;;;;5059091;28;20045;-79
2021/06/17 00:53:53;;;;;;;10.60;9.40;;;24.10;64.80;;;;;;5055400;28;20040;-70
2021/06/17 00:56:18;;;;;;;11.70;9.70;;;24.20;65.00;;;;;;5054465;28;20053;-73
2021/06/17 00:58:45;;;;;;;15.18;9.07;;;24.10;65.10;;;;;;5042247;28;20047;-77
2021/06/17 01:01:11;;;;;;;12.98;9.88;;;24.10;65.00;;;;;;5056958;28;20048;-74
2021/06/17 01:03:36;;;;;;;11.90;9.15;;;24.10;64.80;;;;;;5059201;28;20533;-85
2021/06/17 01:06:02;;;;;;;12.20;9.68;;;24.10;64.90;;;;;;5059975;28;20052;-81
2021/06/17 01:09:07;;;;;;;11.73;9.25;;;24.10;64.90;;;;;;5056741;28;20028;-75
2021/06/17 01:11:56;;;;;;;11.55;9.55;;;24.10;65.10;;;;;;5059583;28;20056;-73
2021/06/17 01:14:26;;;;;;;11.18;9.88;;;24.10;65.10;;;;;;5033573;28;20044;-73
2021/06/17 01:16:59;;;;;;;13.10;10.63;;;24.10;65.20;;;;;;5058885;28;20036;-75
2021/06/17 01:19:30;;;;;;;11.93;9.75;;;24.10;65.10;;;;;;5058152;28;20032;-81
2021/06/17 01:22:14;;;;;;;11.13;8.80;;;24.00;65.10;;;;;;5060293;28;20723;-72
2021/06/17 01:24:52;;;;;;;11.60;10.15;;;24.00;65.30;;;;;;5039769;28;20047;-76
2021/06/17 01:27:36;;;;;;;11.38;10.18;;;24.00;65.30;;;;;;5058493;28;20044;-73
2021/06/17 01:30:11;;;;;;;12.30;9.70;;;23.90;65.40;;;;;;5036294;28;20041;-74
2021/06/17 01:32:46;;;;;;;13.30;9.65;;;23.80;65.70;;;;;;5059281;28;20407;-71
2021/06/17 01:35:14;;;;;;;12.75;9.32;;;23.80;65.70;;;;;;5054761;28;20036;-77
2021/06/17 01:37:41;;;;;;;12.40;9.85;;;23.80;65.90;;;;;;5039269;28;20036;-81
2021/06/17 01:40:08;;;;;;;12.18;10.27;;;23.80;66.10;;;;;;5054459;28;20456;-82
2021/06/17 01:42:36;;;;;;;12.43;9.90;;;23.70;66.00;;;;;;5057147;28;20475;-85
2021/06/17 01:45:03;;;;;;;13.15;10.48;;;23.70;66.00;;;;;;5056718;28;20044;-72
2021/06/17 01:47:29;;;;;;;13.88;9.75;;;23.70;66.10;;;;;;5057524;28;20048;-76
2021/06/17 01:49:56;;;;;;;12.90;10.73;;;23.60;66.10;;;;;;5055689;28;20029;-73
2021/06/17 01:52:24;;;;;;;12.25;10.77;;;23.60;66.30;;;;;;5041587;28;20064;-75
2021/06/17 01:54:51;;;;;;;11.25;10.07;;;23.60;66.40;;;;;;5054661;28;20032;-75
2021/06/17 01:57:19;;;;;;;13.10;10.45;;;23.60;66.40;;;;;;5040389;28;20040;-72
2021/06/17 01:59:47;;;;;;;13.20;10.38;;;23.60;66.50;;;;;;5058841;28;20119;-72
2021/06/17 02:02:14;;;;;;;12.65;10.32;;;23.60;66.60;;;;;;5057225;28;20033;-76
2021/06/17 02:04:41;;;;;;;14.48;10.30;;;23.50;66.60;;;;;;5053510;28;20459;-73
2021/06/17 02:07:11;;;;;;;13.07;10.40;;;23.50;66.60;;;;;;5058884;28;20078;-72
2021/06/17 02:09:37;;;;;;;13.48;10.32;;;23.50;66.60;;;;;;5055673;28;20031;-76
2021/06/17 02:12:03;;;;;;;11.75;9.57;;;23.50;66.70;;;;;;5055922;28;20032;-77
2021/06/17 02:14:30;;;;;;;14.15;10.95;;;23.50;66.90;;;;;;5053250;28;20189;-72
2021/06/17 02:16:57;;;;;;;13.30;11.15;;;23.50;66.80;;;;;;5057605;28;20115;-77
2021/06/17 02:19:27;;;;;;;12.98;11.32;;;23.40;66.90;;;;;;5056859;28;20391;-78
2021/06/17 02:21:57;;;;;;;13.75;10.85;;;23.40;67.00;;;;;;5037992;28;20379;-82
2021/06/17 02:24:24;;;;;;;12.23;10.88;;;23.40;67.00;;;;;;5038381;28;21386;-72
2021/06/17 02:26:55;;;;;;;11.38;9.90;;;23.40;67.00;;;;;;5056965;28;20068;-73
2021/06/17 02:29:22;;;;;;;14.50;10.93;;;23.30;67.00;;;;;;5056721;28;20048;-75
2021/06/17 02:31:51;;;;;;;14.43;11.15;;;23.30;67.10;;;;;;5056328;28;20174;-77
2021/06/17 02:34:17;;;;;;;12.95;10.63;;;23.30;67.20;;;;;;5053229;28;20039;-72
2021/06/17 02:36:45;;;;;;;12.27;10.80;;;23.20;67.40;;;;;;5038168;28;20037;-85
2021/06/17 02:39:18;;;;;;;12.60;10.60;;;23.20;67.30;;;;;;5056137;28;20672;-72
2021/06/17 02:41:48;;;;;;;12.80;11.35;;;23.20;67.40;;;;;;5058087;28;20083;-72
2021/06/17 02:44:15;;;;;;;13.20;10.27;;;23.20;67.40;;;;;;5057564;28;20040;-73
2021/06/17 02:46:41;;;;;;;13.45;10.75;;;23.10;67.60;;;;;;5052768;28;20047;-78
2021/06/17 02:49:08;;;;;;;13.23;10.63;;;23.10;67.70;;;;;;5055167;28;20033;-74
2021/06/17 02:51:34;;;;;;;12.07;9.98;;;23.10;67.50;;;;;;5055061;28;20067;-72
2021/06/17 02:54:00;;;;;;;13.43;11.10;;;23.10;67.50;;;;;;5038897;28;20130;-73
2021/06/17 02:56:52;;;;;;;12.57;10.18;;;23.10;67.60;;;;;;5054151;28;20551;-71
2021/06/17 02:59:28;;;;;;;10.93;9.23;;;23.10;67.60;;;;;;5056680;28;20040;-80
2021/06/17 03:02:13;;;;;;;10.93;9.57;;;23.00;67.80;;;;;;5055487;28;20467;-74
2021/06/17 03:05:05;;;;;;;13.68;9.68;;;23.10;67.90;;;;;;5054345;28;20433;-79
2021/06/17 03:07:37;;;;;;;11.15;9.90;;;23.00;67.80;;;;;;5057827;28;20036;-73
2021/06/17 03:10:08;;;;;;;11.90;10.13;;;23.00;68.10;;;;;;5057569;28;20060;-77
2021/06/17 03:12:36;;;;;;;11.45;9.13;;;23.00;68.10;;;;;;5060258;28;20037;-77
2021/06/17 03:15:06;;;;;;;11.05;8.65;;;23.00;67.90;;;;;;5055097;28;20593;-76
2021/06/17 03:17:35;;;;;;;12.45;8.77;;;23.00;68.00;;;;;;5055387;28;20036;-75
2021/06/17 03:20:04;;;;;;;11.40;9.25;;;23.00;68.00;;;;;;5038930;28;20047;-79
2021/06/17 03:22:31;;;;;;;11.15;8.43;;;23.00;67.90;;;;;;5056474;28;20403;-73
2021/06/17 03:25:01;;;;;;;11.73;9.00;;;23.00;67.70;;;;;;5055254;28;20045;-72
2021/06/17 03:27:28;;;;;;;11.32;9.48;;;23.00;67.10;;;;;;5033435;28;20049;-72
2021/06/17 03:29:56;;;;;;;12.82;9.20;;;23.00;67.00;;;;;;5056115;28;20202;-76
2021/06/17 03:32:26;;;;;;;12.63;9.35;;;23.00;67.20;;;;;;5056155;28;20037;-75
2021/06/17 03:34:53;;;;;;;13.50;9.27;;;23.00;67.00;;;;;;5056065;28;20036;-76
2021/06/17 03:37:22;;;;;;;11.00;8.98;;;23.00;66.60;;;;;;5040590;28;20036;-78
2021/06/17 03:39:51;;;;;;;11.57;8.32;;;23.00;67.10;;;;;;5056147;28;20032;-83
2021/06/17 03:42:18;;;;;;;10.88;7.72;;;23.00;67.30;;;;;;5053287;28;20048;-76
2021/06/17 03:44:47;;;;;;;12.25;8.13;;;23.00;67.10;;;;;;5055604;28;20044;-81
2021/06/17 03:47:15;;;;;;;11.18;6.55;;;23.10;65.80;;;;;;5053881;28;20072;-74
2021/06/17 03:49:43;;;;;;;14.48;7.13;;;23.10;65.40;;;;;;5057227;28;20033;-74
2021/06/17 03:52:09;;;;;;;11.18;6.03;;;23.20;64.70;;;;;;5056516;28;20609;-73
2021/06/17 03:54:35;;;;;;;9.02;5.78;;;23.30;64.10;;;;;;5038867;28;20762;-79
2021/06/17 03:57:04;;;;;;;10.98;5.93;;;23.40;63.80;;;;;;5054093;28;20040;-73
2021/06/17 03:59:35;;;;;;;11.85;5.47;;;23.40;63.30;;;;;;5055527;28;20087;-78
2021/06/17 04:02:01;;;;;;;8.60;5.57;;;23.50;63.10;;;;;;5038785;28;20028;-76
2021/06/17 04:04:27;;;;;;;11.65;5.78;;;23.60;62.70;;;;;;5060134;28;20075;-74
2021/06/17 04:06:55;;;;;;;11.30;6.20;;;23.70;62.30;;;;;;5060363;28;20052;-72
2021/06/17 04:09:33;;;;;;;10.88;6.03;;;23.80;62.10;;;;;;5055916;28;20039;-75
2021/06/17 04:12:07;;;;;;;8.77;5.57;;;23.90;61.60;;;;;;5057076;28;20035;-76
2021/06/17 04:14:35;;;;;;;10.23;5.25;;;24.10;61.50;;;;;;5057593;28;20045;-79
2021/06/17 04:17:03;;;;;;;9.63;5.88;;;24.10;60.90;;;;;;5057930;28;20494;-76
2021/06/17 04:19:31;;;;;;;8.18;4.95;;;24.30;60.60;;;;;;5062370;28;20039;-79
2021/06/17 04:22:02;;;;;;;10.52;5.85;;;24.50;60.40;;;;;;5057351;28;20054;-82
2021/06/17 04:24:32;;;;;;;9.02;5.10;;;24.70;59.80;;;;;;5059318;28;20036;-79
2021/06/17 04:26:58;;;;;;;8.50;4.47;;;24.90;59.20;;;;;;5058950;28;20066;-78
2021/06/17 04:29:25;;;;;;;9.43;4.90;;;25.00;58.60;;;;;;5059384;28;20090;-72
2021/06/17 04:31:52;;;;;;;8.80;5.00;;;25.10;58.30;;;;;;5038892;28;20728;-72
2021/06/17 04:34:19;;;;;;;10.70;5.28;;;25.10;58.20;;;;;;5059004;28;20033;-73
2021/06/17 04:36:46;;;;;;;14.65;5.03;;;25.10;58.30;;;;;;5042908;28;20035;-73
2021/06/17 04:39:12;;;;;;;11.40;4.65;;;25.10;58.00;;;;;;5038778;28;20041;-72
2021/06/17 04:41:39;;;;;;;10.77;5.18;;;25.10;58.40;;;;;;5060576;28;20106;-75
2021/06/17 04:44:05;;;;;;;9.77;5.30;;;25.00;58.70;;;;;;5059759;28;20381;-72
2021/06/17 04:46:33;;;;;;;10.40;4.70;;;24.90;59.50;;;;;;5058113;28;20045;-81
2021/06/17 04:48:59;;;;;;;13.32;4.72;;;24.90;56.90;;;;;;5060421;28;20048;-81
2021/06/17 04:51:27;;;;;;;26.58;5.97;;;25.00;57.60;;;;;;5041490;28;20056;-73
2021/06/17 04:53:54;;;;;;;25.65;5.15;;;25.00;57.20;;;;;;5057543;28;20049;-79
2021/06/17 04:56:20;;;;;;;24.15;4.90;;;25.10;57.10;;;;;;5062897;28;20466;-73
2021/06/17 04:58:50;;;;;;;21.73;4.82;;;25.00;57.70;;;;;;5045198;28;20034;-78
2021/06/17 05:01:18;;;;;;;19.75;4.97;;;24.90;60.60;;;;;;5060384;28;20036;-74
2021/06/17 05:03:44;;;;;;;16.38;5.13;;;24.60;61.30;;;;;;5058933;28;20037;-87
2021/06/17 05:06:11;;;;;;;18.50;5.50;;;24.50;63.10;;;;;;5041319;28;20053;-74
2021/06/17 05:11:22;;;;;;;16.38;4.68;;;24.30;64.00;;;;;;5056634;28;20128;-75
2021/06/17 05:13:48;;;;;;;11.32;4.65;;;24.10;65.20;;;;;;5053445;28;20071;-78
2021/06/17 05:16:14;;;;;;;15.90;5.72;;;24.10;66.80;;;;;;5056307;28;20037;-82
2021/06/17 05:18:40;;;;;;;14.43;5.22;;;24.00;68.10;;;;;;5037122;28;20037;-73
2021/06/17 05:21:07;;;;;;;14.45;5.75;;;23.60;69.70;;;;;;5058513;28;20151;-75
2021/06/17 05:23:34;;;;;;;14.25;5.45;;;23.50;70.50;;;;;;5032273;28;20395;-85
2021/06/17 05:26:00;;;;;;;17.65;6.15;;;23.60;70.60;;;;;;5060575;28;20045;-74
2021/06/17 05:28:28;;;;;;;15.52;7.30;;;23.40;71.50;;;;;;5052652;28;20039;-68
2021/06/17 05:30:57;;;;;;;15.45;7.28;;;23.10;72.50;;;;;;5051957;28;20076;-70
2021/06/17 05:33:23;;;;;;;19.35;7.55;;;23.10;73.30;;;;;;5033584;28;20048;-72
2021/06/17 05:35:49;;;;;;;14.70;7.45;;;23.00;73.30;;;;;;5052986;28;20040;-73
2021/06/17 05:38:19;;;;;;;13.38;7.70;;;23.00;73.60;;;;;;5059572;28;20421;-69
2021/06/17 05:40:45;;;;;;;11.70;7.10;;;23.10;73.70;;;;;;5057069;28;20364;-71
2021/06/17 05:43:11;;;;;;;14.40;7.88;;;23.10;73.80;;;;;;5055132;28;20494;-74
2021/06/17 05:45:37;;;;;;;13.63;7.80;;;23.00;74.20;;;;;;5028071;28;20063;-72
2021/06/17 05:48:03;;;;;;;14.00;7.70;;;22.90;74.60;;;;;;5048408;28;20113;-73
2021/06/17 05:50:29;;;;;;;12.80;7.95;;;23.00;74.70;;;;;;5035730;28;20463;-68
2021/06/17 05:52:54;;;;;;;15.05;8.52;;;23.00;74.70;;;;;;5053038;28;20033;-68
2021/06/17 05:55:20;;;;;;;13.73;7.35;;;22.90;74.90;;;;;;5056286;28;20056;-71
2021/06/17 05:57:46;;;;;;;15.23;8.20;;;22.90;75.50;;;;;;5051653;28;20135;-70
2021/06/17 06:00:12;;;;;;;15.00;7.22;;;22.90;75.20;;;;;;5034432;28;20221;-73
2021/06/17 06:02:38;;;;;;;16.42;8.07;;;23.00;75.20;;;;;;5051440;28;20032;-75
2021/06/17 06:05:05;;;;;;;14.95;7.00;;;22.90;75.40;;;;;;5035127;28;20062;-70
2021/06/17 06:07:31;;;;;;;12.15;6.85;;;23.00;75.40;;;;;;5035149;28;20048;-74
2021/06/17 06:09:57;;;;;;;16.05;8.18;;;23.00;76.40;;;;;;5051224;28;20032;-73
2021/06/17 06:12:23;;;;;;;15.35;7.50;;;23.00;77.90;;;;;;5033942;28;20037;-71
2021/06/17 06:14:48;;;;;;;14.00;7.63;;;22.80;77.90;;;;;;5053678;28;20471;-71
2021/06/17 06:17:14;;;;;;;13.50;7.55;;;22.80;78.80;;;;;;5055531;28;20040;-70
2021/06/17 06:19:40;;;;;;;14.75;7.80;;;22.70;79.30;;;;;;5053650;28;20039;-74
2021/06/17 06:22:07;;;;;;;15.60;7.53;;;22.70;80.00;;;;;;5054573;28;20574;-77
2021/06/17 06:24:34;;;;;;;14.77;8.18;;;22.60;79.60;;;;;;5053658;28;20024;-74
2021/06/17 06:27:01;;;;;;;13.45;8.35;;;22.50;79.80;;;;;;5033559;28;20371;-70
2021/06/17 06:29:28;;;;;;;12.48;7.07;;;22.50;81.00;;;;;;5053918;28;20049;-73
2021/06/17 06:31:55;;;;;;;19.77;8.63;;;22.40;80.40;;;;;;5032352;28;20040;-72
2021/06/17 06:34:20;;;;;;;16.55;10.80;;;22.30;80.50;;;;;;5050910;28;20092;-75
2021/06/17 06:36:46;;;;;;;15.73;9.25;;;22.20;81.40;;;;;;5035466;28;20171;-69
2021/06/17 06:39:12;;;;;;;13.90;8.82;;;22.10;82.50;;;;;;5052509;28;20043;-72
2021/06/17 06:41:39;;;;;;;13.52;8.70;;;22.20;82.60;;;;;;5047638;28;20064;-70
2021/06/17 06:44:05;;;;;;;14.38;9.38;;;22.10;81.90;;;;;;5049962;28;20033;-69
2021/06/17 06:46:31;;;;;;;15.48;8.60;;;22.20;82.00;;;;;;5051742;28;20052;-71
2021/06/17 06:48:58;;;;;;;15.05;9.02;;;22.20;81.60;;;;;;5054748;28;20036;-72
2021/06/17 06:51:23;;;;;;;15.30;10.13;;;22.10;81.90;;;;;;5062962;28;20029;-70
2021/06/17 06:53:49;;;;;;;15.25;9.15;;;22.10;82.40;;;;;;5056864;28;20063;-70
2021/06/17 06:56:15;;;;;;;16.15;9.68;;;22.00;83.20;;;;;;5056122;28;20111;-72
2021/06/17 06:58:40;;;;;;;15.65;10.20;;;22.00;83.20;;;;;;5058685;28;20195;-77
2021/06/17 07:01:06;;;;;;;15.27;9.80;;;21.70;84.20;;;;;;5057024;28;20052;-78
2021/06/17 07:03:32;;;;;;;19.67;10.65;;;22.00;84.60;;;;;;5039018;28;20036;-73
2021/06/17 07:05:57;;;;;;;24.05;10.88;;;22.30;84.20;;;;;;5058893;28;20032;-76
2021/06/17 07:08:23;;;;;;;16.70;10.38;;;22.40;83.00;;;;;;5056557;28;20036;-77
2021/06/17 07:10:49;;;;;;;18.10;10.57;;;22.50;82.50;;;;;;5059019;28;20036;-72
2021/06/17 07:13:15;;;;;;;19.17;9.48;;;22.60;82.70;;;;;;5054709;28;20045;-73
2021/06/17 07:15:45;;;;;;;15.20;9.48;;;22.70;82.40;;;;;;5056876;28;20089;-77
2021/06/17 07:18:10;;;;;;;14.02;10.20;;;22.80;81.30;;;;;;5053533;28;20040;-74
2021/06/17 07:20:36;;;;;;;16.38;10.30;;;22.90;81.40;;;;;;5053120;28;20024;-73
2021/06/17 07:23:02;;;;;;;13.57;9.68;;;23.00;81.10;;;;;;5054191;28;20124;-73
2021/06/17 07:25:29;;;;;;;17.30;9.50;;;23.10;80.70;;;;;;5053666;28;20036;-75
2021/06/17 07:27:55;;;;;;;14.60;9.45;;;23.20;80.60;;;;;;5055675;28;20061;-79
2021/06/17 07:30:23;;;;;;;17.10;9.27;;;23.30;80.20;;;;;;5054228;28;20387;-80
2021/06/17 07:32:49;;;;;;;17.08;9.75;;;23.50;79.60;;;;;;5040356;28;20033;-76
2021/06/17 07:35:15;;;;;;;13.23;8.38;;;23.60;79.20;;;;;;5055468;28;20039;-80
2021/06/17 07:37:41;;;;;;;18.60;10.05;;;23.60;78.50;;;;;;5058972;28;20525;-74
2021/06/17 07:40:09;;;;;;;15.10;8.70;;;23.70;78.20;;;;;;5062311;28;20040;-76
2021/06/17 07:42:35;;;;;;;15.27;9.20;;;24.00;77.80;;;;;;5061948;28;20115;-72
2021/06/17 07:45:02;;;;;;;14.50;9.10;;;24.10;77.10;;;;;;5043537;28;20499;-75
2021/06/17 07:47:27;;;;;;;14.18;8.02;;;24.30;77.10;;;;;;5062059;28;20383;-74
2021/06/17 07:49:53;;;;;;;13.18;8.48;;;24.50;76.20;;;;;;5063245;28;20044;-74
2021/06/17 07:52:19;;;;;;;15.30;7.40;;;24.70;74.20;;;;;;5057826;28;20052;-70
2021/06/17 07:54:45;;;;;;;13.43;7.75;;;24.80;73.90;;;;;;5041533;28;20074;-71
2021/06/17 07:57:10;;;;;;;13.27;8.05;;;24.80;74.30;;;;;;5041524;28;20531;-73
2021/06/17 07:59:36;;;;;;;11.10;6.93;;;24.80;74.20;;;;;;5059055;28;20503;-69
2021/06/17 08:02:03;;;;;;;11.68;7.15;;;25.00;74.30;;;;;;5060939;28;20453;-69
2021/06/17 08:04:29;;;;;;;13.20;7.90;;;25.40;73.30;;;;;;5060598;28;20040;-69
2021/06/17 08:06:55;;;;;;;13.35;7.85;;;25.60;73.10;;;;;;5061969;28;20045;-71
2021/06/17 08:09:21;;;;;;;10.82;7.43;;;25.90;72.50;;;;;;5043796;28;20116;-69
2021/06/17 08:11:48;;;;;;;13.05;6.75;;;26.20;70.70;;;;;;5044285;28;20066;-68
2021/06/17 08:14:28;;;;;;;12.55;6.85;;;26.50;69.40;;;;;;5042057;28;20392;-70
2021/06/17 08:16:57;;;;;;;11.20;6.05;;;26.60;69.00;;;;;;5060837;28;20075;-71
2021/06/17 08:19:29;;;;;;;12.40;5.80;;;27.00;68.00;;;;;;5059141;28;20038;-70
2021/06/17 08:22:03;;;;;;;12.48;5.45;;;27.10;66.90;;;;;;5060121;28;20033;-69
2021/06/17 08:24:28;;;;;;;10.68;4.97;;;27.10;66.40;;;;;;5059551;28;20032;-70
2021/06/17 08:26:54;;;;;;;10.90;5.45;;;27.40;67.00;;;;;;5059149;28;20059;-70
2021/06/17 08:29:20;;;;;;;11.25;5.18;;;27.60;65.10;;;;;;5060151;28;20024;-74
2021/06/17 08:31:45;;;;;;;8.35;4.28;;;27.50;64.80;;;;;;5059410;28;20045;-69
2021/06/17 08:34:11;;;;;;;10.68;4.43;;;27.70;64.10;;;;;;5056764;28;20028;-73
2021/06/17 08:36:37;;;;;;;9.88;4.50;;;27.50;63.30;;;;;;5061129;28;20041;-70
2021/06/17 08:39:04;;;;;;;8.00;4.28;;;27.50;63.80;;;;;;5060131;28;20032;-70
2021/06/17 08:41:30;;;;;;;10.68;5.78;;;27.60;62.70;;;;;;5058727;28;20056;-70
2021/06/17 08:43:56;;;;;;;12.13;5.40;;;28.00;62.50;;;;;;5059857;28;20040;-70
2021/06/17 08:46:22;;;;;;;11.95;6.07;;;27.70;62.60;;;;;;5060161;28;20049;-73
2021/06/17 08:48:48;;;;;;;15.23;5.57;;;27.50;62.00;;;;;;5059895;28;20588;-72
2021/06/17 08:51:14;;;;;;;13.63;9.10;;;27.40;63.70;;;;;;5056609;28;20044;-71
2021/06/17 08:53:40;;;;;;;14.85;9.68;;;27.40;63.60;;;;;;5057183;28;20491;-70
2021/06/17 08:56:07;;;;;;;12.82;9.38;;;27.60;63.10;;;;;;5058945;28;20033;-71
2021/06/17 08:58:32;;;;;;;12.40;7.35;;;27.70;63.30;;;;;;5062259;28;20570;-69
2021/06/17 09:00:58;;;;;;;9.93;6.78;;;27.60;62.40;;;;;;5060739;28;20135;-76
2021/06/17 09:03:24;;;;;;;15.13;7.30;;;27.50;62.70;;;;;;5057251;28;20037;-72
2021/06/17 09:05:52;;;;;;;10.55;6.32;;;27.30;62.90;;;;;;5060216;28;20068;-73
2021/06/17 09:08:34;;;;;;;10.32;6.28;;;27.40;63.00;;;;;;5055366;28;20032;-71
2021/06/17 09:11:05;;;;;;;14.07;6.20;;;27.40;62.80;;;;;;5061552;28;20066;-71
2021/06/17 09:13:35;;;;;;;14.00;6.75;;;27.80;62.30;;;;;;5056504;28;20513;-69
2021/06/17 09:16:02;;;;;;;13.43;7.00;;;27.90;61.10;;;;;;5060045;28;20528;-72
2021/06/17 09:18:30;;;;;;;12.13;6.65;;;28.00;59.10;;;;;;5040534;28;20784;-69
2021/06/17 09:21:07;;;;;;;11.60;6.47;;;28.50;58.10;;;;;;5058751;28;20036;-69
2021/06/17 09:23:44;;;;;;;11.95;6.70;;;28.60;57.90;;;;;;5058560;28;20029;-69
2021/06/17 09:26:12;;;;;;;12.75;6.43;;;28.80;57.40;;;;;;5064895;28;20037;-69
2021/06/17 09:28:56;;;;;;;10.80;7.78;;;28.60;57.50;;;;;;5059194;28;20036;-73
2021/06/17 09:31:25;;;;;;;12.82;7.82;;;28.40;58.60;;;;;;5041689;28;20621;-71
2021/06/17 09:33:52;;;;;;;9.48;7.47;;;28.10;60.00;;;;;;5057935;28;20037;-70
2021/06/17 09:36:22;;;;;;;10.93;7.60;;;28.00;59.20;;;;;;5059114;28;20250;-69
2021/06/17 09:38:58;;;;;;;12.13;7.28;;;28.00;59.80;;;;;;5057514;28;20032;-69
2021/06/17 09:41:36;;;;;;;12.25;6.82;;;28.10;59.50;;;;;;5037326;28;20154;-68
2021/06/17 09:44:03;;;;;;;13.32;6.68;;;28.50;58.60;;;;;;5056771;28;20040;-69
2021/06/17 09:46:29;;;;;;;11.95;6.38;;;28.60;57.20;;;;;;5039520;28;20483;-69
2021/06/17 09:49:03;;;;;;;11.70;6.47;;;28.60;56.90;;;;;;5061044;28;20040;-70
2021/06/17 09:51:29;;;;;;;;;;;28.80;57.30;;;;;;5042116;28;20041;-69
2021/06/17 09:54:10;;;;;;;12.60;6.03;;;28.70;55.90;;;;;;5055658;28;20047;-72
2021/06/17 09:56:37;;;;;;;11.02;5.40;;;28.70;56.50;;;;;;5041595;28;20106;-70
2021/06/17 09:59:07;;;;;;;11.18;5.47;;;28.80;55.40;;;;;;5054219;28;20037;-72
2021/06/17 10:01:37;;;;;;;11.95;5.30;;;29.10;55.40;;;;;;5057154;28;20041;-70
2021/06/17 10:04:07;;;;;;;8.55;4.95;;;29.40;54.80;;;;;;5037066;28;20036;-69
2021/06/17 10:06:38;;;;;;;9.05;4.72;;;29.40;54.20;;;;;;5059381;28;20036;-70
2021/06/17 10:09:06;;;;;;;10.43;4.97;;;29.30;55.10;;;;;;5056922;28;20037;-70
2021/06/17 10:11:33;;;;;;;7.90;4.85;;;29.20;54.70;;;;;;5058655;28;20032;-71
2021/06/17 10:14:00;;;;;;;12.13;5.22;;;29.40;54.40;;;;;;5039663;28;20056;-69
2021/06/17 10:16:26;;;;;;;9.73;4.88;;;29.50;55.10;;;;;;5057716;28;20084;-75
2021/06/17 10:18:51;;;;;;;11.30;5.10;;;29.50;54.50;;;;;;5058814;28;20037;-73
2021/06/17 10:21:17;;;;;;;9.20;4.63;;;29.60;54.20;;;;;;5058187;28;20113;-74
2021/06/17 10:23:50;;;;;;;12.63;5.30;;;29.70;53.40;;;;;;5058391;28;20110;-70
2021/06/17 10:26:20;;;;;;;9.27;5.00;;;29.80;54.00;;;;;;5033824;28;20048;-71
2021/06/17 10:28:48;;;;;;;11.30;5.05;;;29.60;53.90;;;;;;5039015;28;20052;-73
2021/06/17 10:31:50;;;;;;;10.52;4.60;;;29.60;53.90;;;;;;5059551;28;20032;-70
2021/06/17 10:34:25;;;;;;;11.02;5.07;;;29.30;54.60;;;;;;5060797;28;20056;-70
2021/06/17 10:37:15;;;;;;;10.65;5.00;;;29.30;55.10;;;;;;5060859;28;20033;-72
2021/06/17 10:39:41;;;;;;;8.63;4.45;;;29.50;53.90;;;;;;5047981;28;20054;-70
2021/06/17 10:42:40;;;;;;;10.88;4.50;;;30.00;53.40;;;;;;5055168;28;20472;-76
2021/06/17 10:45:13;;;;;;;8.20;4.18;;;30.30;52.50;;;;;;5032399;28;20071;-78
2021/06/17 10:47:42;;;;;;;7.80;3.92;;;30.60;52.30;;;;;;5037384;28;20049;-70
2021/06/17 10:50:09;;;;;;;8.63;4.15;;;30.70;50.80;;;;;;5055446;28;20032;-71
2021/06/17 10:52:35;;;;;;;9.23;4.45;;;30.50;51.70;;;;;;5055789;28;20029;-71
2021/06/17 10:55:08;;;;;;;8.80;4.03;;;30.80;50.90;;;;;;5054043;28;20054;-71
2021/06/17 10:57:50;;;;;;;9.57;4.57;;;30.70;50.60;;;;;;5054238;28;20387;-71
2021/06/17 11:00:28;;;;;;;11.25;4.50;;;30.40;52.10;;;;;;5057291;28;20037;-69
2021/06/17 11:03:01;;;;;;;8.55;4.20;;;30.40;51.50;;;;;;5057542;28;20040;-72
2021/06/17 11:05:33;;;;;;;9.85;4.32;;;30.40;51.90;;;;;;5051718;28;20116;-73
2021/06/17 11:08:19;;;;;;;9.30;4.63;;;30.30;51.50;;;;;;5055040;28;20202;-74
2021/06/17 11:10:51;;;;;;;8.85;4.15;;;30.10;52.40;;;;;;5057150;28;20033;-72
2021/06/17 11:13:30;;;;;;;7.88;3.78;;;30.40;51.50;;;;;;5053253;28;20043;-71
2021/06/17 11:16:16;;;;;;;9.48;4.13;;;30.80;51.10;;;;;;5055211;28;20060;-73
2021/06/17 11:21:23;;;;;;;9.30;4.18;;;30.80;50.40;;;;;;5058371;28;20032;-70
2021/06/17 11:23:50;;;;;;;9.30;4.28;;;31.10;50.10;;;;;;5055515;28;20036;-70
2021/06/17 11:26:44;;;;;;;10.38;4.63;;;31.10;50.60;;;;;;5055947;28;20571;-70
2021/06/17 11:29:15;;;;;;;13.30;4.90;;;30.90;49.80;;;;;;5057788;28;20120;-69
2021/06/17 11:31:41;;;;;;;8.75;4.28;;;30.60;51.20;;;;;;5055932;28;20036;-70
2021/06/17 11:34:11;;;;;;;8.23;4.00;;;30.90;50.70;;;;;;5048559;28;20045;-73
2021/06/17 11:36:51;;;;;;;8.30;4.22;;;31.10;49.70;;;;;;5057597;28;20525;-70
2021/06/17 11:39:28;;;;;;;8.75;3.88;;;31.10;49.40;;;;;;5055572;28;20117;-69
2021/06/17 11:41:56;;;;;;;9.35;4.45;;;30.80;50.20;;;;;;5054914;28;20090;-70
2021/06/17 11:44:26;;;;;;;8.60;4.00;;;30.50;52.20;;;;;;5055187;28;20041;-73
2021/06/17 11:47:14;;;;;;;11.35;4.50;;;30.30;51.00;;;;;;5057873;28;20051;-72
2021/06/17 11:49:45;;;;;;;9.43;4.43;;;30.50;50.90;;;;;;5057105;28;20060;-70
2021/06/17 11:52:14;;;;;;;8.63;4.10;;;30.60;50.70;;;;;;5056130;28;20545;-69
2021/06/17 11:54:41;;;;;;;7.80;3.47;;;30.50;50.90;;;;;;5054252;28;20036;-69
2021/06/17 11:57:07;;;;;;;8.40;3.90;;;30.70;50.90;;;;;;5039201;28;20380;-74
2021/06/17 11:59:36;;;;;;;8.15;3.97;;;30.80;51.10;;;;;;5059321;28;20525;-70
2021/06/17 12:02:04;;;;;;;7.43;3.78;;;30.70;50.40;;;;;;5056462;28;20040;-70
2021/06/17 12:04:39;;;;;;;9.63;4.30;;;30.80;49.70;;;;;;5058099;28;20066;-70
2021/06/17 12:07:06;;;;;;;10.55;4.25;;;30.70;49.80;;;;;;5056841;28;20489;-69
2021/06/17 12:09:31;;;;;;;7.15;4.00;;;30.70;50.20;;;;;;5038069;28;20052;-73
2021/06/17 12:12:19;;;;;;;9.95;4.07;;;30.60;50.70;;;;;;5054619;28;20125;-71
2021/06/17 12:14:46;;;;;;;9.45;3.97;;;30.70;50.40;;;;;;5055170;28;20044;-70
2021/06/17 12:17:24;;;;;;;8.40;3.85;;;31.20;49.70;;;;;;5058009;28;20033;-74
2021/06/17 12:19:59;;;;;;;11.30;4.00;;;31.50;48.80;;;;;;5058997;28;20036;-70
2021/06/17 12:22:25;;;;;;;10.95;4.05;;;32.00;48.20;;;;;;5052269;28;20028;-75
2021/06/17 12:24:51;;;;;;;10.02;3.88;;;32.10;48.40;;;;;;5056111;28;20041;-69
2021/06/17 12:27:18;;;;;;;9.35;4.03;;;31.90;48.10;;;;;;5040912;28;20387;-70
2021/06/17 12:29:46;;;;;;;9.07;3.80;;;31.80;48.20;;;;;;5042748;28;20482;-69
2021/06/17 12:32:12;;;;;;;8.70;4.00;;;31.70;48.30;;;;;;5039392;28;20124;-70
2021/06/17 12:34:43;;;;;;;8.27;3.70;;;31.50;49.60;;;;;;5059261;28;20040;-70
2021/06/17 12:37:11;;;;;;;10.35;3.65;;;31.40;48.60;;;;;;5057063;28;20552;-76
2021/06/17 12:39:53;;;;;;;9.15;3.90;;;31.30;49.30;;;;;;5060842;28;20391;-70
2021/06/17 12:42:21;;;;;;;8.80;3.80;;;31.50;48.70;;;;;;5061167;28;20452;-69
2021/06/17 12:44:46;;;;;;;9.68;4.15;;;31.00;49.50;;;;;;5056389;28;20883;-73
2021/06/17 12:52:59;;;;;;;8.05;4.05;;;31.30;49.10;;;;;;5022604;28;20455;-70
2021/06/17 12:55:38;;;;;;;7.57;3.70;;;31.90;48.70;;;;;;5057113;28;20028;-71
2021/06/17 12:58:04;;;;;;;10.75;4.20;;;31.80;47.90;;;;;;5057904;28;20047;-70